createdAt,value
2017-07-27T00:00:29.420Z,18.81
2017-07-27T00:01:09.968Z,18.8
2017-07-27T00:01:50.462Z,18.81
2017-07-27T00:02:30.999Z,18.78
2017-07-27T00:03:11.509Z,18.81
2017-07-27T00:03:52.032Z,18.8
2017-07-27T00:04:32.561Z,18.81
2017-07-27T00:05:13.103Z,18.8
2017-07-27T00:05:53.622Z,18.78
2017-07-27T00:06:34.147Z,18.84
2017-07-27T00:07:14.662Z,18.81
2017-07-27T00:07:55.177Z,18.82
2017-07-27T00:08:35.683Z,18.75
2017-07-27T00:09:16.206Z,18.78
2017-07-27T00:09:56.722Z,18.76
2017-07-27T00:10:37.261Z,18.7
2017-07-27T00:11:17.766Z,18.78
2017-07-27T00:11:58.302Z,18.75
2017-07-27T00:12:38.791Z,18.78
2017-07-27T00:13:19.305Z,18.82
2017-07-27T00:13:59.831Z,18.84
2017-07-27T00:14:40.391Z,18.72
2017-07-27T00:15:20.922Z,18.66
2017-07-27T00:16:01.416Z,18.78
2017-07-27T00:16:41.928Z,18.73
2017-07-27T00:17:22.434Z,18.67
2017-07-27T00:18:02.975Z,18.63
2017-07-27T00:18:43.483Z,18.67
2017-07-27T00:19:24.001Z,18.7
2017-07-27T00:20:04.509Z,18.67
2017-07-27T00:20:44.986Z,18.7
2017-07-27T00:21:25.493Z,18.69
2017-07-27T00:22:05.996Z,18.69
2017-07-27T00:22:46.494Z,18.65
2017-07-27T00:23:26.988Z,18.63
2017-07-27T00:24:07.503Z,18.63
2017-07-27T00:24:48.096Z,18.6
2017-07-27T00:25:28.570Z,18.65
2017-07-27T00:26:09.115Z,18.65
2017-07-27T00:26:49.568Z,18.54
2017-07-27T00:27:30.120Z,18.58
2017-07-27T00:28:10.574Z,18.65
2017-07-27T00:28:51.059Z,18.67
2017-07-27T00:29:31.607Z,18.67
2017-07-27T00:30:12.105Z,18.67
2017-07-27T00:30:52.623Z,18.54
2017-07-27T00:31:33.127Z,18.66
2017-07-27T00:32:13.614Z,18.66
2017-07-27T00:32:54.140Z,18.69
2017-07-27T00:33:34.646Z,18.67
2017-07-27T00:34:15.128Z,18.73
2017-07-27T00:34:55.644Z,18.69
2017-07-27T00:35:36.178Z,18.72
2017-07-27T00:36:16.736Z,18.65
2017-07-27T00:36:57.259Z,18.65
2017-07-27T00:37:37.800Z,18.63
2017-07-27T00:38:18.337Z,18.73
2017-07-27T00:38:58.873Z,18.72
2017-07-27T00:39:39.385Z,18.69
2017-07-27T00:40:19.918Z,18.72
2017-07-27T00:41:00.453Z,18.69
2017-07-27T00:41:40.974Z,18.76
2017-07-27T00:42:21.503Z,18.67
2017-07-27T00:43:01.978Z,18.69
2017-07-27T00:43:42.460Z,18.65
2017-07-27T00:44:23.010Z,18.72
2017-07-27T00:45:03.539Z,18.7
2017-07-27T00:45:44.070Z,18.66
2017-07-27T00:46:24.577Z,18.7
2017-07-27T00:47:05.103Z,18.73
2017-07-27T00:47:45.618Z,18.67
2017-07-27T00:48:26.141Z,18.62
2017-07-27T00:49:06.670Z,18.72
2017-07-27T00:49:47.165Z,18.69
2017-07-27T00:50:27.650Z,18.69
2017-07-27T00:51:08.219Z,18.66
2017-07-27T00:51:48.715Z,18.66
2017-07-27T00:52:29.216Z,18.66
2017-07-27T00:53:09.720Z,18.73
2017-07-27T00:53:50.226Z,18.66
2017-07-27T00:54:30.768Z,18.75
2017-07-27T00:55:11.277Z,18.65
2017-07-27T00:55:51.793Z,18.65
2017-07-27T00:56:32.289Z,18.69
2017-07-27T00:57:12.852Z,18.63
2017-07-27T00:57:53.375Z,18.7
2017-07-27T00:58:33.900Z,18.66
2017-07-27T00:59:14.510Z,18.69
2017-07-27T00:59:54.983Z,18.7
2017-07-27T01:00:35.452Z,18.65
2017-07-27T01:01:15.949Z,18.63
2017-07-27T01:01:56.442Z,18.66
2017-07-27T01:02:36.932Z,18.66
2017-07-27T01:03:17.418Z,18.65
2017-07-27T01:03:57.935Z,18.6
2017-07-27T01:04:38.409Z,18.6
2017-07-27T01:05:18.936Z,18.57
2017-07-27T01:05:59.452Z,18.6
2017-07-27T01:06:39.930Z,18.63
2017-07-27T01:07:20.428Z,18.62
2017-07-27T01:08:00.924Z,18.58
2017-07-27T01:08:41.483Z,18.5
2017-07-27T01:09:21.962Z,18.52
2017-07-27T01:10:02.480Z,18.48
2017-07-27T01:10:43.014Z,18.51
2017-07-27T01:11:23.519Z,18.51
2017-07-27T01:12:04.021Z,18.52
2017-07-27T01:12:44.536Z,18.5
2017-07-27T01:13:25.114Z,18.5
2017-07-27T01:14:05.642Z,18.47
2017-07-27T01:14:46.202Z,18.54
2017-07-27T01:15:26.741Z,18.51
2017-07-27T01:16:07.255Z,18.54
2017-07-27T01:16:47.786Z,18.58
2017-07-27T01:17:28.303Z,18.52
2017-07-27T01:18:08.827Z,18.54
2017-07-27T01:18:49.354Z,18.48
2017-07-27T01:19:29.891Z,18.48
2017-07-27T01:20:10.407Z,18.44
2017-07-27T01:20:50.955Z,18.51
2017-07-27T01:21:31.467Z,18.55
2017-07-27T01:22:11.998Z,18.51
2017-07-27T01:22:52.472Z,18.47
2017-07-27T01:23:32.995Z,18.51
2017-07-27T01:24:13.478Z,18.48
2017-07-27T01:24:53.988Z,18.47
2017-07-27T01:25:34.513Z,18.5
2017-07-27T01:26:15.026Z,18.45
2017-07-27T01:26:55.568Z,18.51
2017-07-27T01:27:36.027Z,18.48
2017-07-27T01:28:16.581Z,18.51
2017-07-27T01:28:57.116Z,18.52
2017-07-27T01:29:37.637Z,18.52
2017-07-27T01:30:18.154Z,18.47
2017-07-27T01:30:58.676Z,18.48
2017-07-27T01:31:39.179Z,18.52
2017-07-27T01:32:19.705Z,18.51
2017-07-27T01:33:00.261Z,18.5
2017-07-27T01:33:40.751Z,18.47
2017-07-27T01:34:21.293Z,18.51
2017-07-27T01:35:01.761Z,18.5
2017-07-27T01:35:42.255Z,18.47
2017-07-27T01:36:22.762Z,18.48
2017-07-27T01:37:03.288Z,18.5
2017-07-27T01:37:43.822Z,18.51
2017-07-27T01:38:24.355Z,18.57
2017-07-27T01:39:04.886Z,18.5
2017-07-27T01:39:45.387Z,18.48
2017-07-27T01:40:25.882Z,18.57
2017-07-27T01:41:08.084Z,18.54
2017-07-27T01:41:48.574Z,18.52
2017-07-27T01:42:29.075Z,18.47
2017-07-27T01:43:09.559Z,18.55
2017-07-27T01:43:50.067Z,18.52
2017-07-27T01:44:30.560Z,18.55
2017-07-27T01:45:11.027Z,18.54
2017-07-27T01:45:51.531Z,18.51
2017-07-27T01:46:32.062Z,18.5
2017-07-27T01:47:12.591Z,18.55
2017-07-27T01:47:53.071Z,18.55
2017-07-27T01:48:33.609Z,18.5
2017-07-27T01:49:14.128Z,18.54
2017-07-27T01:49:54.621Z,18.51
2017-07-27T01:50:35.129Z,18.47
2017-07-27T01:51:15.663Z,18.52
2017-07-27T01:51:56.216Z,18.54
2017-07-27T01:52:36.725Z,18.54
2017-07-27T01:53:17.234Z,18.57
2017-07-27T01:53:57.720Z,18.54
2017-07-27T01:54:38.214Z,18.51
2017-07-27T01:55:18.744Z,18.52
2017-07-27T01:55:59.276Z,18.52
2017-07-27T01:56:39.794Z,18.58
2017-07-27T01:57:20.298Z,18.62
2017-07-27T01:58:00.824Z,18.63
2017-07-27T01:58:41.375Z,18.65
2017-07-27T01:59:21.919Z,18.62
2017-07-27T02:00:02.467Z,18.62
2017-07-27T02:00:43.012Z,18.62
2017-07-27T02:01:23.541Z,18.66
2017-07-27T02:02:04.050Z,18.62
2017-07-27T02:02:44.599Z,18.65
2017-07-27T02:03:25.117Z,18.65
2017-07-27T02:04:05.641Z,18.6
2017-07-27T02:04:46.156Z,18.58
2017-07-27T02:05:26.697Z,18.69
2017-07-27T02:06:07.241Z,18.65
2017-07-27T02:06:47.740Z,18.63
2017-07-27T02:07:28.358Z,18.62
2017-07-27T02:08:08.913Z,18.6
2017-07-27T02:08:49.462Z,18.62
2017-07-27T02:09:29.996Z,18.6
2017-07-27T02:10:10.540Z,18.62
2017-07-27T02:10:51.067Z,18.63
2017-07-27T02:11:31.580Z,18.63
2017-07-27T02:12:12.094Z,18.63
2017-07-27T02:12:52.579Z,18.66
2017-07-27T02:13:33.083Z,18.63
2017-07-27T02:14:13.582Z,18.66
2017-07-27T02:14:54.097Z,18.6
2017-07-27T02:15:34.677Z,18.62
2017-07-27T02:16:15.207Z,18.62
2017-07-27T02:16:55.724Z,18.63
2017-07-27T02:17:36.257Z,18.63
2017-07-27T02:18:16.772Z,18.62
2017-07-27T02:18:57.311Z,18.62
2017-07-27T02:19:37.828Z,18.6
2017-07-27T02:20:18.324Z,18.58
2017-07-27T02:20:58.834Z,18.58
2017-07-27T02:21:39.400Z,18.63
2017-07-27T02:22:19.894Z,18.63
2017-07-27T02:23:00.430Z,18.63
2017-07-27T02:23:40.960Z,18.57
2017-07-27T02:24:21.489Z,18.51
2017-07-27T02:25:01.998Z,18.55
2017-07-27T02:25:42.534Z,18.62
2017-07-27T02:26:23.043Z,18.55
2017-07-27T02:27:03.556Z,18.54
2017-07-27T02:27:44.143Z,18.51
2017-07-27T02:28:24.697Z,18.5
2017-07-27T02:29:05.250Z,18.42
2017-07-27T02:29:45.772Z,18.51
2017-07-27T02:30:26.309Z,18.5
2017-07-27T02:31:06.845Z,18.47
2017-07-27T02:31:47.336Z,18.36
2017-07-27T02:32:27.861Z,18.36
2017-07-27T02:33:08.446Z,18.39
2017-07-27T02:33:48.926Z,18.37
2017-07-27T02:34:29.396Z,18.39
2017-07-27T02:35:09.960Z,18.35
2017-07-27T02:35:50.443Z,18.33
2017-07-27T02:36:30.961Z,18.27
2017-07-27T02:37:11.476Z,18.29
2017-07-27T02:37:51.962Z,18.21
2017-07-27T02:38:32.451Z,18.18
2017-07-27T02:39:12.948Z,18.12
2017-07-27T02:39:53.446Z,18.14
2017-07-27T02:40:33.947Z,18.14
2017-07-27T02:41:14.461Z,18.07
2017-07-27T02:41:54.971Z,18.05
2017-07-27T02:42:35.558Z,18.02
2017-07-27T02:43:16.100Z,18.03
2017-07-27T02:43:56.695Z,18.07
2017-07-27T02:44:37.192Z,17.96
2017-07-27T02:45:17.702Z,17.95
2017-07-27T02:45:58.208Z,17.99
2017-07-27T02:46:38.741Z,17.96
2017-07-27T02:47:19.363Z,17.92
2017-07-27T02:47:59.878Z,17.93
2017-07-27T02:48:40.443Z,17.95
2017-07-27T02:49:21.114Z,17.93
2017-07-27T02:50:01.676Z,17.89
2017-07-27T02:50:42.240Z,17.96
2017-07-27T02:51:22.738Z,17.97
2017-07-27T02:52:03.236Z,17.87
2017-07-27T02:52:43.863Z,17.84
2017-07-27T02:53:24.632Z,17.86
2017-07-27T02:54:05.148Z,17.84
2017-07-27T02:54:45.671Z,17.9
2017-07-27T02:55:26.295Z,17.9
2017-07-27T02:56:07.113Z,17.9
2017-07-27T02:56:47.683Z,17.78
2017-07-27T02:57:28.248Z,17.81
2017-07-27T02:58:08.920Z,17.79
2017-07-27T02:58:50.229Z,17.79
2017-07-27T02:59:31.695Z,17.77
2017-07-27T03:00:12.310Z,17.74
2017-07-27T03:00:53.056Z,17.78
2017-07-27T03:01:33.645Z,17.75
2017-07-27T03:02:14.347Z,17.71
2017-07-27T03:02:55.389Z,17.75
2017-07-27T03:03:36.796Z,17.81
2017-07-27T03:04:18.044Z,17.79
2017-07-27T03:04:58.626Z,17.75
2017-07-27T03:05:39.528Z,17.72
2017-07-27T03:06:20.326Z,17.78
2017-07-27T03:07:02.839Z,17.74
2017-07-27T03:07:43.422Z,17.77
2017-07-27T03:08:25.451Z,17.75
2017-07-27T03:09:06.000Z,17.77
2017-07-27T03:09:47.450Z,17.72
2017-07-27T03:10:28.138Z,17.78
2017-07-27T03:11:08.814Z,17.74
2017-07-27T03:11:49.936Z,17.77
2017-07-27T03:12:31.552Z,17.75
2017-07-27T03:13:14.039Z,17.79
2017-07-27T03:13:55.468Z,17.84
2017-07-27T03:14:36.458Z,17.79
2017-07-27T03:15:17.047Z,17.77
2017-07-27T03:15:58.105Z,17.72
2017-07-27T03:16:40.833Z,17.75
2017-07-27T03:17:22.066Z,17.77
2017-07-27T03:18:03.986Z,17.78
2017-07-27T03:18:44.725Z,17.78
2017-07-27T03:19:25.712Z,17.82
2017-07-27T03:20:06.627Z,17.79
2017-07-27T03:20:48.391Z,17.78
2017-07-27T03:21:29.120Z,17.81
2017-07-27T03:22:10.433Z,17.81
2017-07-27T03:22:52.062Z,17.74
2017-07-27T03:23:34.514Z,17.78
2017-07-27T03:24:16.256Z,17.75
2017-07-27T03:24:58.691Z,17.78
2017-07-27T03:25:43.677Z,17.79
2017-07-27T03:26:27.566Z,17.82
2017-07-27T03:27:09.349Z,17.77
2017-07-27T03:27:51.800Z,17.81
2017-07-27T03:28:34.532Z,17.75
2017-07-27T03:29:17.441Z,17.79
2017-07-27T03:29:58.684Z,17.78
2017-07-27T03:30:41.146Z,17.81
2017-07-27T03:31:22.138Z,17.81
2017-07-27T03:32:03.092Z,17.81
2017-07-27T03:32:43.622Z,17.81
2017-07-27T03:33:24.302Z,17.89
2017-07-27T03:34:04.750Z,17.9
2017-07-27T03:34:45.371Z,17.9
2017-07-27T03:35:25.957Z,17.9
2017-07-27T03:36:06.480Z,17.9
2017-07-27T03:36:47.063Z,17.86
2017-07-27T03:37:27.572Z,17.92
2017-07-27T03:38:08.152Z,17.93
2017-07-27T03:38:48.704Z,17.89
2017-07-27T03:39:29.287Z,17.93
2017-07-27T03:40:09.810Z,17.95
2017-07-27T03:40:50.391Z,17.93
2017-07-27T03:41:30.921Z,17.9
2017-07-27T03:42:11.459Z,17.95
2017-07-27T03:42:52.094Z,17.9
2017-07-27T03:43:32.727Z,17.82
2017-07-27T03:44:13.361Z,17.82
2017-07-27T03:44:54.011Z,17.86
2017-07-27T03:45:34.720Z,17.92
2017-07-27T03:46:15.351Z,17.81
2017-07-27T03:46:55.957Z,17.93
2017-07-27T03:47:37.439Z,17.89
2017-07-27T03:48:18.311Z,17.93
2017-07-27T03:48:59.053Z,17.9
2017-07-27T03:49:39.705Z,17.93
2017-07-27T03:50:21.536Z,17.87
2017-07-27T03:51:02.185Z,17.99
2017-07-27T03:51:42.906Z,17.9
2017-07-27T03:52:23.633Z,17.93
2017-07-27T03:53:04.575Z,17.87
2017-07-27T03:53:45.326Z,17.93
2017-07-27T03:54:25.906Z,17.95
2017-07-27T03:55:06.522Z,17.82
2017-07-27T03:55:47.268Z,17.82
2017-07-27T03:56:27.753Z,17.89
2017-07-27T03:57:08.299Z,17.84
2017-07-27T03:57:48.888Z,17.86
2017-07-27T03:58:29.380Z,17.92
2017-07-27T03:59:09.955Z,17.9
2017-07-27T03:59:50.511Z,17.95
2017-07-27T04:00:31.057Z,17.87
2017-07-27T04:01:11.598Z,17.93
2017-07-27T04:01:52.093Z,17.82
2017-07-27T04:02:32.598Z,17.9
2017-07-27T04:03:13.143Z,17.81
2017-07-27T04:03:53.673Z,17.9
2017-07-27T04:04:34.190Z,17.92
2017-07-27T04:05:14.768Z,17.9
2017-07-27T04:05:55.271Z,17.95
2017-07-27T04:06:35.788Z,17.9
2017-07-27T04:07:16.317Z,17.9
2017-07-27T04:07:56.835Z,17.87
2017-07-27T04:08:37.344Z,17.78
2017-07-27T04:09:17.902Z,17.79
2017-07-27T04:09:58.525Z,17.81
2017-07-27T04:10:39.077Z,17.77
2017-07-27T04:11:19.599Z,17.78
2017-07-27T04:12:00.138Z,17.81
2017-07-27T04:12:40.672Z,17.75
2017-07-27T04:13:21.205Z,17.74
2017-07-27T04:14:01.750Z,17.74
2017-07-27T04:14:42.245Z,17.77
2017-07-27T04:15:22.748Z,17.79
2017-07-27T04:16:03.266Z,17.72
2017-07-27T04:16:43.731Z,17.72
2017-07-27T04:17:24.229Z,17.77
2017-07-27T04:18:04.814Z,17.72
2017-07-27T04:18:45.302Z,17.74
2017-07-27T04:19:25.942Z,17.72
2017-07-27T04:20:06.568Z,17.72
2017-07-27T04:20:47.158Z,17.74
2017-07-27T04:21:27.759Z,17.71
2017-07-27T04:22:08.267Z,17.77
2017-07-27T04:22:48.794Z,17.75
2017-07-27T04:23:29.345Z,17.72
2017-07-27T04:24:09.896Z,17.58
2017-07-27T04:24:50.576Z,17.72
2017-07-27T04:25:31.085Z,17.72
2017-07-27T04:26:11.562Z,17.7
2017-07-27T04:26:52.091Z,17.72
2017-07-27T04:27:32.608Z,17.71
2017-07-27T04:28:13.113Z,17.74
2017-07-27T04:28:53.632Z,17.7
2017-07-27T04:29:34.189Z,17.71
2017-07-27T04:30:14.665Z,17.66
2017-07-27T04:30:55.202Z,17.63
2017-07-27T04:31:35.723Z,17.58
2017-07-27T04:32:16.258Z,17.62
2017-07-27T04:32:56.793Z,17.59
2017-07-27T04:33:37.336Z,17.62
2017-07-27T04:34:17.870Z,17.63
2017-07-27T04:34:58.388Z,17.64
2017-07-27T04:35:38.930Z,17.59
2017-07-27T04:36:19.450Z,17.59
2017-07-27T04:36:59.954Z,17.58
2017-07-27T04:37:40.485Z,17.64
2017-07-27T04:38:21.049Z,17.59
2017-07-27T04:39:01.550Z,17.63
2017-07-27T04:39:42.082Z,17.58
2017-07-27T04:40:22.607Z,17.64
2017-07-27T04:41:03.120Z,17.66
2017-07-27T04:41:43.685Z,17.59
2017-07-27T04:42:24.187Z,17.68
2017-07-27T04:43:04.704Z,17.66
2017-07-27T04:43:45.208Z,17.64
2017-07-27T04:44:25.721Z,17.72
2017-07-27T04:45:06.211Z,17.66
2017-07-27T04:45:46.824Z,17.68
2017-07-27T04:46:27.378Z,17.71
2017-07-27T04:47:07.892Z,17.66
2017-07-27T04:47:48.436Z,17.68
2017-07-27T04:48:28.935Z,17.66
2017-07-27T04:49:09.469Z,17.7
2017-07-27T04:49:49.993Z,17.71
2017-07-27T04:50:30.520Z,17.66
2017-07-27T04:51:11.045Z,17.63
2017-07-27T04:51:51.579Z,17.7
2017-07-27T04:52:32.092Z,17.68
2017-07-27T04:53:12.615Z,17.66
2017-07-27T04:53:53.123Z,17.63
2017-07-27T04:54:33.676Z,17.68
2017-07-27T04:55:14.284Z,17.62
2017-07-27T04:55:54.825Z,17.64
2017-07-27T04:56:35.370Z,17.66
2017-07-27T04:57:16.050Z,17.68
2017-07-27T04:57:56.570Z,17.66
2017-07-27T04:58:37.243Z,17.66
2017-07-27T04:59:17.733Z,17.64
2017-07-27T04:59:58.239Z,17.7
2017-07-27T05:00:38.736Z,17.68
2017-07-27T05:01:19.259Z,17.68
2017-07-27T05:01:59.756Z,17.72
2017-07-27T05:02:42.497Z,17.74
2017-07-27T05:03:22.914Z,17.74
2017-07-27T05:04:08.321Z,17.7
2017-07-27T05:04:50.734Z,17.74
2017-07-27T05:05:31.304Z,17.74
2017-07-27T05:06:11.859Z,17.64
2017-07-27T05:06:52.353Z,17.74
2017-07-27T05:07:32.990Z,17.75
2017-07-27T05:08:13.442Z,17.78
2017-07-27T05:08:53.953Z,17.77
2017-07-27T05:09:34.474Z,17.77
2017-07-27T05:10:14.986Z,17.84
2017-07-27T05:10:55.482Z,17.77
2017-07-27T05:11:36.039Z,17.77
2017-07-27T05:12:16.618Z,17.77
2017-07-27T05:12:57.142Z,17.77
2017-07-27T05:13:37.701Z,17.81
2017-07-27T05:14:18.244Z,17.75
2017-07-27T05:14:58.780Z,17.92
2017-07-27T05:15:39.355Z,17.81
2017-07-27T05:16:19.908Z,17.9
2017-07-27T05:17:00.450Z,17.93
2017-07-27T05:17:41.022Z,17.93
2017-07-27T05:18:21.582Z,17.86
2017-07-27T05:19:02.048Z,17.92
2017-07-27T05:19:42.578Z,17.89
2017-07-27T05:20:23.118Z,17.9
2017-07-27T05:21:03.670Z,17.95
2017-07-27T05:21:44.166Z,17.9
2017-07-27T05:22:24.715Z,17.95
2017-07-27T05:23:05.207Z,17.92
2017-07-27T05:23:45.759Z,17.95
2017-07-27T05:24:26.298Z,17.93
2017-07-27T05:25:06.784Z,17.9
2017-07-27T05:25:47.345Z,17.97
2017-07-27T05:26:27.904Z,17.96
2017-07-27T05:27:08.436Z,17.93
2017-07-27T05:27:48.963Z,17.95
2017-07-27T05:28:29.461Z,17.97
2017-07-27T05:29:10.039Z,18.05
2017-07-27T05:29:50.557Z,17.96
2017-07-27T05:30:31.088Z,18
2017-07-27T05:31:11.754Z,18
2017-07-27T05:31:52.370Z,18.03
2017-07-27T05:32:33.678Z,17.97
2017-07-27T05:33:14.167Z,17.99
2017-07-27T05:33:54.690Z,17.96
2017-07-27T05:34:35.285Z,18.05
2017-07-27T05:35:15.757Z,18.03
2017-07-27T05:35:56.317Z,18.03
2017-07-27T05:36:36.798Z,18.08
2017-07-27T05:37:17.365Z,18.11
2017-07-27T05:37:57.983Z,18.11
2017-07-27T05:38:38.410Z,18.14
2017-07-27T05:39:19.303Z,18.11
2017-07-27T05:40:02.210Z,18.1
2017-07-27T05:40:42.783Z,18.05
2017-07-27T05:41:23.363Z,18.07
2017-07-27T05:42:03.800Z,18.11
2017-07-27T05:42:44.318Z,18.11
2017-07-27T05:43:24.909Z,18.1
2017-07-27T05:44:05.453Z,18.1
2017-07-27T05:44:45.925Z,18.12
2017-07-27T05:45:26.481Z,18.11
2017-07-27T05:46:07.049Z,18.17
2017-07-27T05:46:47.573Z,18.12
2017-07-27T05:47:28.052Z,18.21
2017-07-27T05:48:08.606Z,18.17
2017-07-27T05:48:50.688Z,18.17
2017-07-27T05:49:31.211Z,18.18
2017-07-27T05:50:11.769Z,18.25
2017-07-27T05:50:52.260Z,18.27
2017-07-27T05:51:32.893Z,18.39
2017-07-27T05:52:13.434Z,18.35
2017-07-27T05:52:53.958Z,18.44
2017-07-27T05:53:34.495Z,18.32
2017-07-27T05:54:14.995Z,18.39
2017-07-27T05:54:57.201Z,18.35
2017-07-27T05:55:37.751Z,18.36
2017-07-27T05:56:18.286Z,18.37
2017-07-27T05:57:00.717Z,18.32
2017-07-27T05:57:41.290Z,18.41
2017-07-27T05:58:21.754Z,18.47
2017-07-27T05:59:02.691Z,18.45
2017-07-27T05:59:43.574Z,18.54
2017-07-27T06:00:24.071Z,18.57
2017-07-27T06:01:04.672Z,18.54
2017-07-27T06:01:45.203Z,18.55
2017-07-27T06:02:25.765Z,18.6
2017-07-27T06:03:06.281Z,18.57
2017-07-27T06:03:48.683Z,18.48
2017-07-27T06:04:29.285Z,18.54
2017-07-27T06:05:09.847Z,18.51
2017-07-27T06:05:50.440Z,18.51
2017-07-27T06:06:31.010Z,18.55
2017-07-27T06:07:11.540Z,18.48
2017-07-27T06:07:52.083Z,18.54
2017-07-27T06:08:32.655Z,18.54
2017-07-27T06:09:13.342Z,18.52
2017-07-27T06:09:53.948Z,18.55
2017-07-27T06:10:34.432Z,18.5
2017-07-27T06:11:15.051Z,18.58
2017-07-27T06:11:55.913Z,18.63
2017-07-27T06:12:38.902Z,18.65
2017-07-27T06:13:21.185Z,18.62
2017-07-27T06:14:03.983Z,18.65
2017-07-27T06:14:46.020Z,18.6
2017-07-27T06:15:26.600Z,18.65
2017-07-27T06:16:09.269Z,18.65
2017-07-27T06:16:49.740Z,18.66
2017-07-27T06:17:30.254Z,18.63
2017-07-27T06:18:10.834Z,18.67
2017-07-27T06:18:51.355Z,18.63
2017-07-27T06:19:31.930Z,18.69
2017-07-27T06:20:12.460Z,18.67
2017-07-27T06:20:52.943Z,18.72
2017-07-27T06:21:33.530Z,18.7
2017-07-27T06:22:14.031Z,18.67
2017-07-27T06:22:54.548Z,18.67
2017-07-27T06:23:35.089Z,18.62
2017-07-27T06:24:16.484Z,18.67
2017-07-27T06:24:57.069Z,18.7
2017-07-27T06:25:37.602Z,18.7
2017-07-27T06:26:18.907Z,18.67
2017-07-27T06:26:59.453Z,18.69
2017-07-27T06:27:39.981Z,18.7
2017-07-27T06:28:20.442Z,18.73
2017-07-27T06:29:01.068Z,18.75
2017-07-27T06:29:41.590Z,18.67
2017-07-27T06:30:22.153Z,18.72
2017-07-27T06:31:02.656Z,18.63
2017-07-27T06:31:43.189Z,18.66
2017-07-27T06:32:23.725Z,18.66
2017-07-27T06:33:04.265Z,18.66
2017-07-27T06:33:44.795Z,18.7
2017-07-27T06:34:25.349Z,18.73
2017-07-27T06:36:14.480Z,18.78
2017-07-27T06:36:54.965Z,18.8
2017-07-27T06:37:35.430Z,18.7
2017-07-27T06:38:15.932Z,18.78
2017-07-27T06:38:56.455Z,18.81
2017-07-27T06:39:36.983Z,18.8
2017-07-27T06:40:17.508Z,18.8
2017-07-27T06:40:58.059Z,18.78
2017-07-27T06:41:38.529Z,18.85
2017-07-27T06:42:19.044Z,18.88
2017-07-27T06:42:59.567Z,18.94
2017-07-27T06:43:40.109Z,18.98
2017-07-27T06:44:20.587Z,18.99
2017-07-27T06:45:01.922Z,19.04
2017-07-27T06:45:42.477Z,19
2017-07-27T06:46:23.025Z,19.06
2017-07-27T06:47:03.629Z,19.07
2017-07-27T06:47:44.152Z,19.1
2017-07-27T06:48:24.671Z,19.14
2017-07-27T06:49:05.167Z,19.19
2017-07-27T06:49:45.754Z,19.18
2017-07-27T06:50:26.689Z,19.19
2017-07-27T06:51:07.266Z,19.19
2017-07-27T06:51:47.943Z,19.25
2017-07-27T06:52:28.455Z,19.23
2017-07-27T06:53:09.000Z,19.32
2017-07-27T06:53:49.510Z,19.32
2017-07-27T06:54:30.229Z,19.36
2017-07-27T06:55:11.017Z,19.26
2017-07-27T06:55:51.541Z,19.28
2017-07-27T06:56:32.111Z,19.37
2017-07-27T06:57:12.695Z,19.4
2017-07-27T06:57:53.197Z,19.39
2017-07-27T06:58:33.657Z,19.39
2017-07-27T06:59:14.280Z,19.5
2017-07-27T06:59:54.778Z,19.54
2017-07-27T07:00:35.244Z,19.51
2017-07-27T07:01:15.768Z,19.59
2017-07-27T07:01:57.361Z,19.59
2017-07-27T07:02:37.870Z,19.58
2017-07-27T07:03:18.645Z,19.68
2017-07-27T07:03:59.169Z,19.66
2017-07-27T07:04:39.723Z,19.68
2017-07-27T07:05:20.219Z,19.68
2017-07-27T07:06:00.719Z,19.78
2017-07-27T07:06:41.249Z,19.71
2017-07-27T07:07:21.813Z,19.74
2017-07-27T07:08:02.421Z,19.73
2017-07-27T07:08:43.557Z,19.78
2017-07-27T07:09:24.144Z,19.74
2017-07-27T07:10:04.832Z,19.77
2017-07-27T07:10:45.393Z,19.83
2017-07-27T07:11:25.828Z,19.81
2017-07-27T07:12:06.353Z,19.71
2017-07-27T07:12:47.637Z,19.76
2017-07-27T07:13:28.171Z,19.73
2017-07-27T07:14:08.677Z,19.71
2017-07-27T07:14:49.216Z,19.77
2017-07-27T07:15:29.723Z,19.78
2017-07-27T07:16:10.275Z,19.76
2017-07-27T07:16:51.060Z,19.76
2017-07-27T07:17:31.776Z,19.77
2017-07-27T07:18:12.529Z,19.81
2017-07-27T07:18:53.113Z,19.81
2017-07-27T07:19:33.890Z,19.78
2017-07-27T07:20:14.779Z,19.77
2017-07-27T07:20:55.318Z,19.91
2017-07-27T07:21:36.026Z,19.84
2017-07-27T07:22:17.907Z,19.92
2017-07-27T07:22:58.426Z,19.99
2017-07-27T07:23:39.203Z,20.01
2017-07-27T07:24:19.825Z,20.02
2017-07-27T07:25:00.400Z,19.98
2017-07-27T07:25:40.943Z,20.06
2017-07-27T07:26:21.564Z,20.16
2017-07-27T07:27:01.985Z,20.18
2017-07-27T07:27:42.539Z,20.16
2017-07-27T07:28:23.090Z,20.17
2017-07-27T07:29:03.607Z,20.14
2017-07-27T07:29:44.114Z,20.17
2017-07-27T07:30:24.667Z,20.18
2017-07-27T07:31:05.191Z,20.2
2017-07-27T07:31:45.709Z,20.18
2017-07-27T07:32:26.247Z,20.24
2017-07-27T07:33:06.779Z,20.33
2017-07-27T07:33:47.626Z,20.32
2017-07-27T07:34:28.195Z,20.26
2017-07-27T07:35:08.682Z,20.28
2017-07-27T07:35:49.211Z,20.31
2017-07-27T07:36:29.851Z,20.32
2017-07-27T07:37:10.298Z,20.31
2017-07-27T07:37:50.842Z,20.31
2017-07-27T07:38:31.352Z,20.32
2017-07-27T07:39:11.857Z,20.31
2017-07-27T07:39:52.380Z,20.36
2017-07-27T07:40:33.049Z,20.24
2017-07-27T07:41:13.593Z,20.26
2017-07-27T07:41:54.230Z,20.31
2017-07-27T07:42:35.052Z,20.28
2017-07-27T07:43:15.712Z,20.29
2017-07-27T07:43:56.237Z,20.31
2017-07-27T07:44:36.728Z,20.31
2017-07-27T07:45:17.345Z,20.23
2017-07-27T07:45:57.854Z,20.29
2017-07-27T07:46:38.493Z,20.32
2017-07-27T07:47:19.057Z,20.33
2017-07-27T07:48:00.230Z,20.29
2017-07-27T07:48:40.080Z,20.24
2017-07-27T07:49:20.866Z,20.18
2017-07-27T07:50:01.374Z,20.17
2017-07-27T07:50:41.956Z,20.18
2017-07-27T07:51:22.489Z,20.16
2017-07-27T07:52:03.132Z,20.17
2017-07-27T07:52:43.849Z,20.18
2017-07-27T07:53:24.464Z,20.13
2017-07-27T07:54:05.194Z,20.11
2017-07-27T07:54:45.764Z,20.11
2017-07-27T07:55:26.301Z,20.1
2017-07-27T07:56:07.338Z,20.1
2017-07-27T07:56:47.793Z,20.06
2017-07-27T07:57:28.476Z,20.1
2017-07-27T07:58:09.009Z,20.08
2017-07-27T07:58:49.631Z,20.06
2017-07-27T07:59:30.124Z,20.08
2017-07-27T08:00:10.637Z,20.14
2017-07-27T08:00:51.235Z,20.06
2017-07-27T08:01:31.764Z,20.02
2017-07-27T08:02:12.366Z,20.01
2017-07-27T08:02:52.913Z,20.03
2017-07-27T08:03:33.438Z,20.03
2017-07-27T08:04:14.170Z,19.98
2017-07-27T08:04:54.532Z,20.05
2017-07-27T08:05:35.095Z,20.05
2017-07-27T08:06:15.644Z,20.03
2017-07-27T08:06:56.826Z,19.99
2017-07-27T08:07:38.434Z,19.91
2017-07-27T08:08:18.923Z,19.88
2017-07-27T08:08:59.847Z,19.83
2017-07-27T08:09:40.127Z,19.84
2017-07-27T08:10:20.664Z,19.91
2017-07-27T08:11:01.365Z,19.94
2017-07-27T08:11:41.971Z,19.94
2017-07-27T08:12:22.640Z,19.92
2017-07-27T08:13:03.162Z,19.87
2017-07-27T08:13:43.662Z,19.76
2017-07-27T08:14:24.270Z,19.77
2017-07-27T08:15:05.045Z,19.83
2017-07-27T08:15:45.714Z,19.81
2017-07-27T08:16:26.104Z,19.74
2017-07-27T08:17:06.701Z,19.76
2017-07-27T08:17:47.329Z,19.76
2017-07-27T08:18:27.993Z,19.68
2017-07-27T08:19:08.559Z,19.71
2017-07-27T08:19:49.195Z,19.69
2017-07-27T08:20:29.669Z,19.74
2017-07-27T08:21:10.360Z,19.73
2017-07-27T08:21:51.009Z,19.73
2017-07-27T08:22:31.528Z,19.66
2017-07-27T08:23:12.047Z,19.66
2017-07-27T08:23:52.767Z,19.73
2017-07-27T08:24:33.353Z,19.68
2017-07-27T08:25:14.122Z,19.62
2017-07-27T08:25:55.667Z,19.58
2017-07-27T08:26:35.957Z,19.5
2017-07-27T08:27:16.568Z,19.61
2017-07-27T08:27:57.017Z,19.54
2017-07-27T08:28:37.569Z,19.51
2017-07-27T08:29:18.284Z,19.48
2017-07-27T08:29:58.939Z,19.43
2017-07-27T08:30:39.515Z,19.4
2017-07-27T08:31:20.094Z,19.39
2017-07-27T08:32:00.849Z,19.44
2017-07-27T08:32:41.219Z,19.4
2017-07-27T08:33:21.748Z,19.29
2017-07-27T08:34:02.317Z,19.31
2017-07-27T08:34:42.815Z,19.21
2017-07-27T08:35:23.421Z,19.16
2017-07-27T08:36:04.061Z,19.23
2017-07-27T08:36:44.613Z,19.19
2017-07-27T08:37:25.142Z,19.11
2017-07-27T08:38:05.756Z,19.1
2017-07-27T08:38:46.302Z,19.1
2017-07-27T08:39:26.942Z,19.04
2017-07-27T08:40:07.574Z,18.98
2017-07-27T08:40:48.041Z,18.98
2017-07-27T08:41:28.613Z,18.95
2017-07-27T08:42:09.261Z,18.92
2017-07-27T08:42:49.824Z,18.87
2017-07-27T08:43:30.366Z,18.78
2017-07-27T08:44:10.946Z,18.76
2017-07-27T08:44:51.468Z,18.72
2017-07-27T08:45:32.014Z,18.7
2017-07-27T08:46:12.534Z,18.76
2017-07-27T08:46:53.072Z,18.76